Bemidji Regional Airport
KBJI : rendu visible

Aérodrome :











RETROUVEZ-NOUS SUR...

 
LOGIN :

S'inscrire | Disclaimer

   EN    FR    IT 

 









Légende :    VFR   VFR Marginal   IFR   IFR Intensif   IFR Très Intensif
Visi : 
Plafond : 
>= 8 km
>= 3000ft
5 à 8 km
1000 à 3000 ft
1500m à 5 km
500 à 1000 ft
800 à 1500m
200 à 500 ft
< 800m
< 200 ft
Symboles :   Orages  Brouillard  Fortes neiges  Fortes précipitations  Vent > 20 kt






- Altitude de l'aérodrome : 1391 ft


KBJI - Bemidji Regional

DERNIER METAR :
  • 190255Z AUTO 29018G22KT 4SM -SN SCT044 M18/M20 A3008 RMK AO2 T11761205

METARs EXPIRÉS :
  • 190235Z AUTO 30017G23KT 4SM -SN SCT029 SCT055 M18/M20 A3007 RMK AO2 T11761203
  • 190215Z AUTO 30020G25KT 4SM -SN SCT016 SCT055 M18/M20 A3006 RMK AO2 T11761204
  • 190155Z AUTO 30018G25KT 3SM -SN SCT018 SCT023 SCT037 M17/M20 A3005 RMK AO2 T11751203
  • 190136Z AUTO 30017G23KT 3SM -SN SCT017 SCT022 BKN037 M17/M20 A3005 RMK AO2 T11751202
  • 190115Z AUTO 29020G25KT 3SM -SN SCT017 BKN022 BKN037 M17/M20 A3003 RMK AO2 T11751202
  • 190055Z AUTO 30017G25KT 5SM -SN SCT017 BKN035 M17/M20 A3002 RMK AO2 T11751203
  • 190036Z AUTO 29015G24KT 5SM -SN SCT017 M17/M20 A3001 RMK AO2 T11751204
  • 190015Z AUTO 29016G21KT 5SM -SN SCT017 M17/M20 A3000 RMK AO2 T11731203

TAF KBJI
Valide du 19 à 00h jusqu'au 20 à 00h UTC


182337Z 1900/1924 29018G27KT 2SM -SN BKN020
FM190300 29016KT P6SM OVC012
FM191700 32008KT P6SM BKN015



MET'MAP, la Météo Aéronautique d'un coup d'oeil ! - Copyright ORBIFLY Décembre 2007 - Disclaimer

ORBIFLY MET'MAP TEAM :

Programmation & Développement : Alexandra Zaïnal
Sur une idée originale de : Baudouin d'Aumeries
Assistance à la programmation : Marc-Olivier Méhu
Soutien technique & logistique : Manuel Goepfert

Contact : metmap@orbifly.com




SOURCES & CREDITS :

   NOAA       Earth
Advisory